Time;durP1;ratioP1;P1;durP2;ratioP2;P2;SDS_P1;SDS_P2;PMS_P1;PMS_P2;Temp;Humidity;BMP_temperature;BMP_pressure;BME280_temperature;BME280_humidity;BME280_pressure;Samples;Min_cycle;Max_cycle;Signal;HPM_P1;HPM_P2
2024/02/07 00:01:31;;;;;;;3.03;2.57;;;12.70;1.00;;;;;;5136476;27;20243;-42
2024/02/07 00:03:59;;;;;;;3.10;2.23;;;12.00;1.00;;;;;;5138266;27;20198;-41
2024/02/07 00:06:28;;;;;;;2.67;2.17;;;11.50;24.80;;;;;;5137991;27;20178;-42
2024/02/07 00:08:53;;;;;;;2.80;2.50;;;11.10;88.90;;;;;;5137680;27;20408;-42
2024/02/07 00:11:19;;;;;;;3.97;2.53;;;10.70;99.90;;;;;;5137497;27;20419;-42
2024/02/07 00:13:44;;;;;;;4.23;2.73;;;10.40;99.90;;;;;;5137696;27;20468;-44
2024/02/07 00:16:10;;;;;;;3.97;2.27;;;10.10;99.90;;;;;;5138018;27;20235;-42
2024/02/07 00:18:36;;;;;;;4.63;2.80;;;9.90;1.00;;;;;;5135195;27;20549;-41
2024/02/07 00:21:01;;;;;;;4.93;2.97;;;9.80;1.00;;;;;;5135731;27;20430;-43
2024/02/07 00:23:27;;;;;;;3.47;2.70;;;9.60;1.00;;;;;;5136797;27;20240;-42
2024/02/07 00:25:52;;;;;;;3.67;3.17;;;9.50;1.00;;;;;;5135248;27;20290;-41
2024/02/07 00:28:19;;;;;;;5.00;3.10;;;9.40;96.20;;;;;;5136894;27;20175;-40
2024/02/07 00:30:45;;;;;;;3.70;2.50;;;9.30;99.90;;;;;;5135173;27;20232;-41
2024/02/07 00:33:10;;;;;;;4.33;2.40;;;9.20;99.90;;;;;;5135766;27;20428;-43
2024/02/07 00:35:36;;;;;;;2.67;2.47;;;9.10;1.00;;;;;;5137845;27;20175;-41
2024/02/07 00:38:01;;;;;;;3.60;2.87;;;9.00;1.00;;;;;;5137452;27;20257;-42
2024/02/07 00:40:27;;;;;;;3.60;2.70;;;8.90;1.00;;;;;;5137644;27;20335;-41
2024/02/07 00:42:54;;;;;;;3.33;2.60;;;8.80;41.70;;;;;;5137952;28;20186;-42
2024/02/07 00:45:19;;;;;;;4.10;2.80;;;8.80;99.90;;;;;;5138100;28;20446;-42
2024/02/07 00:47:46;;;;;;;4.30;3.20;;;8.70;99.90;;;;;;5138228;28;20465;-41
2024/02/07 00:50:11;;;;;;;3.30;2.90;;;8.60;1.00;;;;;;5137625;28;20227;-43
2024/02/07 00:52:37;;;;;;;7.07;2.87;;;8.60;1.00;;;;;;5137576;28;20586;-41
2024/02/07 00:55:03;;;;;;;3.40;3.10;;;8.50;1.00;;;;;;5137774;28;20182;-41
2024/02/07 00:57:28;;;;;;;4.07;2.70;;;8.50;15.70;;;;;;5136761;28;20545;-43
2024/02/07 00:59:54;;;;;;;3.47;2.70;;;8.50;46.00;;;;;;5136944;28;20179;-42
2024/02/07 01:02:20;;;;;;;4.77;2.90;;;8.50;99.90;;;;;;5136474;28;20186;-42
2024/02/07 01:04:47;;;;;;;5.23;3.13;;;8.40;99.90;;;;;;5137909;28;20286;-42
2024/02/07 01:07:12;;;;;;;3.17;2.53;;;8.40;99.90;;;;;;5137692;28;20450;-42
2024/02/07 01:09:38;;;;;;;4.13;2.67;;;8.40;1.00;;;;;;5137729;28;20480;-43
2024/02/07 01:12:04;;;;;;;4.40;2.80;;;8.40;1.00;;;;;;5137764;28;20604;-42
2024/02/07 01:14:30;;;;;;;3.60;2.80;;;8.40;1.00;;;;;;5136379;28;20416;-44
2024/02/07 01:16:55;;;;;;;5.53;3.00;;;8.40;1.00;;;;;;5135996;28;20488;-42
2024/02/07 01:19:22;;;;;;;4.53;2.50;;;8.50;1.00;;;;;;5137318;27;20549;-42
2024/02/07 01:21:48;;;;;;;3.07;2.60;;;8.40;1.00;;;;;;5140286;27;20171;-44
2024/02/07 01:24:14;;;;;;;3.73;2.63;;;8.40;1.00;;;;;;5139794;27;20464;-44
2024/02/07 01:26:39;;;;;;;4.30;2.87;;;8.50;1.00;;;;;;5140383;27;20483;-43
2024/02/07 01:29:05;;;;;;;6.27;3.30;;;8.50;1.00;;;;;;5140103;27;20170;-43
2024/02/07 01:31:31;;;;;;;3.10;2.63;;;8.50;1.00;;;;;;5140783;27;20537;-40
2024/02/07 01:33:57;;;;;;;5.87;2.80;;;8.50;76.20;;;;;;5140780;27;20475;-43
2024/02/07 01:36:23;;;;;;;3.83;2.63;;;8.50;99.90;;;;;;5141243;27;20186;-41
2024/02/07 01:38:49;;;;;;;6.00;2.73;;;8.50;99.90;;;;;;5141200;27;20224;-43
2024/02/07 01:42:01;;;;;;;4.20;2.50;;;8.50;99.90;;;;;;5140445;27;20424;-43
2024/02/07 01:44:02;;;;;;;4.57;2.90;;;8.50;99.90;;;;;;5132202;27;20818;-40
2024/02/07 01:46:28;;;;;;;3.27;2.70;;;8.50;99.90;;;;;;5140958;27;20821;-44
2024/02/07 01:48:54;;;;;;;4.13;2.60;;;8.50;99.90;;;;;;5139729;27;20425;-44
2024/02/07 01:51:19;;;;;;;3.13;2.57;;;8.50;99.90;;;;;;5141417;27;20515;-42
2024/02/07 01:53:47;;;;;;;4.93;2.83;;;8.60;99.90;;;;;;5140787;27;20174;-41
2024/02/07 01:56:12;;;;;;;5.50;2.87;;;8.60;99.90;;;;;;5140660;27;20179;-43
2024/02/07 01:58:38;;;;;;;3.03;2.70;;;8.60;99.90;;;;;;5140745;27;20435;-41
2024/02/07 02:01:04;;;;;;;4.30;2.60;;;8.60;99.90;;;;;;5139678;27;20281;-41
2024/02/07 02:03:30;;;;;;;4.07;2.50;;;8.60;99.90;;;;;;5140809;27;20193;-41
2024/02/07 02:05:56;;;;;;;3.83;2.70;;;8.60;99.90;;;;;;5140759;27;20207;-41
2024/02/07 02:08:21;;;;;;;3.93;3.20;;;8.60;99.90;;;;;;5140704;27;20171;-42
2024/02/07 02:10:48;;;;;;;3.80;2.60;;;8.60;99.90;;;;;;5140813;27;20428;-42
2024/02/07 02:13:14;;;;;;;6.10;2.73;;;8.60;99.90;;;;;;5137965;27;20460;-43
2024/02/07 02:15:41;;;;;;;3.80;2.63;;;8.60;99.90;;;;;;5138848;27;20462;-41
2024/02/07 02:18:06;;;;;;;3.50;2.80;;;8.60;99.90;;;;;;5138579;27;20198;-43
2024/02/07 02:20:32;;;;;;;4.50;3.13;;;8.50;99.90;;;;;;5139952;27;20412;-42
2024/02/07 02:23:26;;;;;;;3.63;2.50;;;8.60;1.00;;;;;;5141326;27;20228;-42
2024/02/07 02:26:20;;;;;;;3.67;3.20;;;8.50;1.00;;;;;;5139302;27;20214;-42
2024/02/07 02:28:57;;;;;;;6.57;3.10;;;8.50;1.00;;;;;;5137904;27;20437;-41
2024/02/07 02:31:24;;;;;;;3.27;2.77;;;8.50;1.00;;;;;;5136137;27;20412;-43
2024/02/07 02:33:54;;;;;;;5.60;3.30;;;8.50;1.00;;;;;;5138276;27;20461;-42
2024/02/07 02:36:20;;;;;;;2.90;2.47;;;8.50;1.00;;;;;;5137074;27;20433;-43
2024/02/07 02:38:46;;;;;;;4.57;2.33;;;8.50;32.30;;;;;;5120614;27;20576;-41
2024/02/07 02:41:14;;;;;;;3.90;3.07;;;8.40;99.90;;;;;;5137826;27;20475;-43
2024/02/07 02:43:40;;;;;;;3.43;2.73;;;8.50;99.90;;;;;;5139230;27;20419;-40
2024/02/07 02:46:07;;;;;;;4.17;3.13;;;8.40;99.90;;;;;;5139069;27;20471;-40
2024/02/07 02:48:32;;;;;;;4.23;2.10;;;8.40;1.00;;;;;;5138798;27;20420;-42
2024/02/07 02:51:00;;;;;;;4.10;3.03;;;8.40;1.00;;;;;;5140274;27;20660;-41
2024/02/07 02:53:26;;;;;;;3.47;2.73;;;8.40;1.00;;;;;;5139940;27;20231;-42
2024/02/07 02:55:51;;;;;;;5.77;2.90;;;8.40;1.00;;;;;;5138659;27;20441;-43
2024/02/07 02:58:18;;;;;;;4.90;3.00;;;8.50;1.00;;;;;;5140658;27;20231;-42
2024/02/07 03:00:49;;;;;;;4.13;3.03;;;8.50;1.00;;;;;;5138098;27;20326;-43
2024/02/07 03:03:16;;;;;;;3.30;2.60;;;8.40;1.00;;;;;;5139901;27;20432;-43
2024/02/07 03:10:37;;;;;;;2.90;2.37;;;8.50;1.00;;;;;;5139702;27;20425;-43
2024/02/07 03:13:03;;;;;;;3.50;2.47;;;8.50;31.90;;;;;;5138715;27;20837;-43
2024/02/07 03:15:29;;;;;;;3.30;2.17;;;8.40;99.90;;;;;;5138643;27;20420;-42
2024/02/07 03:17:54;;;;;;;4.10;2.50;;;8.40;99.90;;;;;;5137156;27;20846;-41
2024/02/07 03:20:20;;;;;;;2.87;2.40;;;8.40;99.90;;;;;;5138854;27;20409;-41
2024/02/07 03:22:46;;;;;;;3.13;2.67;;;8.50;99.90;;;;;;5138719;27;20482;-43
2024/02/07 03:25:16;;;;;;;4.43;2.50;;;8.40;99.90;;;;;;5138726;27;20766;-41
2024/02/07 03:27:46;;;;;;;4.03;2.57;;;8.40;99.90;;;;;;5137171;27;20420;-41
2024/02/07 03:33:33;;;;;;;3.63;2.53;;;8.50;99.90;;;;;;5107523;27;20472;-41
2024/02/07 03:35:59;;;;;;;3.40;2.50;;;8.50;99.90;;;;;;5096180;28;20434;-42
2024/02/07 03:38:24;;;;;;;2.57;2.37;;;8.50;99.90;;;;;;5079094;28;20632;-40
2024/02/07 03:40:50;;;;;;;5.17;2.60;;;8.50;99.90;;;;;;5097685;28;20225;-41
2024/02/07 03:43:17;;;;;;;2.43;2.00;;;8.50;99.90;;;;;;5097449;28;20526;-42
2024/02/07 03:45:43;;;;;;;3.93;2.60;;;8.50;99.90;;;;;;5097300;28;20466;-41
2024/02/07 03:48:15;;;;;;;5.13;3.20;;;8.50;99.90;;;;;;5095849;28;20686;-42
2024/02/07 03:50:41;;;;;;;2.80;2.53;;;8.50;1.00;;;;;;5079059;28;20168;-41
2024/02/07 03:53:07;;;;;;;5.07;3.13;;;8.50;1.00;;;;;;5094476;28;20987;-41
2024/02/07 03:55:35;;;;;;;2.33;2.13;;;8.50;1.00;;;;;;5096193;28;20172;-40
2024/02/07 03:58:01;;;;;;;5.33;3.00;;;8.50;1.00;;;;;;5096551;28;20457;-43
2024/02/07 04:00:27;;;;;;;4.53;2.70;;;8.60;1.00;;;;;;5096848;28;20780;-41
2024/02/07 04:02:52;;;;;;;4.70;2.90;;;8.50;1.00;;;;;;5097768;28;20427;-41
2024/02/07 04:05:18;;;;;;;4.13;2.60;;;8.60;1.00;;;;;;5097008;28;20452;-41
2024/02/07 04:07:44;;;;;;;4.00;2.70;;;8.60;1.00;;;;;;5097727;28;20185;-42
2024/02/07 04:10:11;;;;;;;4.03;2.53;;;8.50;1.00;;;;;;5076296;28;20775;-41
2024/02/07 05:15:32;;;;;;;3.60;2.77;;;8.60;85.70;;;;;;5099558;28;20556;-42
2024/02/07 05:17:58;;;;;;;4.70;2.60;;;8.60;99.90;;;;;;5099072;28;20505;-41
2024/02/07 05:20:23;;;;;;;3.30;2.97;;;8.60;99.90;;;;;;5098033;28;20180;-41
2024/02/07 05:22:50;;;;;;;3.97;2.83;;;8.60;99.90;;;;;;5080975;28;20569;-42
2024/02/07 05:25:16;;;;;;;4.10;2.90;;;8.50;99.90;;;;;;5099849;28;20204;-43
2024/02/07 05:27:41;;;;;;;3.73;3.20;;;8.60;99.90;;;;;;5098974;28;20482;-41
2024/02/07 05:30:08;;;;;;;4.83;2.80;;;8.60;99.90;;;;;;5099114;28;20175;-42
2024/02/07 05:32:34;;;;;;;4.23;3.10;;;8.50;99.90;;;;;;5099095;28;20542;-42
2024/02/07 05:34:59;;;;;;;4.77;3.17;;;8.50;99.90;;;;;;5099090;28;20575;-43
2024/02/07 05:37:25;;;;;;;3.77;3.00;;;8.50;99.90;;;;;;5098816;28;20309;-43
2024/02/07 05:39:51;;;;;;;4.10;3.10;;;8.50;99.90;;;;;;5097669;28;20244;-43
2024/02/07 05:42:17;;;;;;;4.73;3.20;;;8.50;99.90;;;;;;5098960;28;20430;-42
2024/02/07 05:44:42;;;;;;;4.90;3.30;;;8.50;99.90;;;;;;5098958;28;20208;-43
2024/02/07 05:47:08;;;;;;;4.20;2.50;;;8.50;99.90;;;;;;5100141;28;20180;-41
2024/02/07 05:49:33;;;;;;;2.97;2.60;;;8.50;99.90;;;;;;5099391;28;20418;-42
2024/02/07 05:51:59;;;;;;;3.67;2.70;;;8.50;99.90;;;;;;5099864;28;20164;-42
2024/02/07 05:54:25;;;;;;;6.80;2.90;;;8.50;99.90;;;;;;5079295;28;20185;-42
2024/02/07 05:56:51;;;;;;;4.53;2.90;;;8.50;99.90;;;;;;5097593;28;20232;-44
2024/02/07 05:59:17;;;;;;;4.93;3.03;;;8.50;99.90;;;;;;5079291;28;20987;-45
2024/02/07 06:01:44;;;;;;;6.57;3.20;;;8.50;99.90;;;;;;5095476;28;20430;-41
2024/02/07 06:04:10;;;;;;;3.80;2.77;;;8.50;99.90;;;;;;5095899;28;20514;-43
2024/02/07 06:06:37;;;;;;;4.03;3.43;;;8.50;99.90;;;;;;5076875;28;20593;-42
2024/02/07 06:09:05;;;;;;;4.53;3.03;;;8.50;99.90;;;;;;5093181;28;20719;-42
2024/02/07 06:11:41;;;;;;;6.30;3.33;;;8.50;99.90;;;;;;5094777;28;20441;-43
2024/02/07 06:14:16;;;;;;;4.73;3.27;;;8.40;99.90;;;;;;5095216;28;20696;-41
2024/02/07 06:16:41;;;;;;;6.43;3.90;;;8.40;99.90;;;;;;5076884;28;20422;-42
2024/02/07 06:19:07;;;;;;;8.20;3.50;;;8.40;99.90;;;;;;5094812;28;20499;-43
2024/02/07 06:21:32;;;;;;;7.40;3.70;;;8.40;99.90;;;;;;5078121;28;20184;-41
2024/02/07 06:23:58;;;;;;;6.73;3.13;;;8.40;99.90;;;;;;5097478;28;20588;-45
2024/02/07 06:26:24;;;;;;;8.97;3.80;;;8.50;99.90;;;;;;5079006;28;20216;-41
2024/02/07 06:28:50;;;;;;;8.33;3.50;;;8.40;99.90;;;;;;5098459;28;20176;-44
2024/02/07 06:31:16;;;;;;;5.77;3.47;;;8.40;99.90;;;;;;5095128;28;20446;-41
2024/02/07 06:33:41;;;;;;;10.03;4.30;;;8.40;99.90;;;;;;5058628;28;20235;-41
2024/02/07 06:36:07;;;;;;;6.80;4.10;;;8.40;99.90;;;;;;5073508;28;20905;-41
2024/02/07 06:38:32;;;;;;;8.00;4.33;;;8.40;99.90;;;;;;5093213;28;20176;-41
2024/02/07 06:40:58;;;;;;;5.20;3.77;;;8.40;99.90;;;;;;5093417;28;20518;-41
2024/02/07 06:43:24;;;;;;;5.33;4.37;;;8.40;99.90;;;;;;5092514;28;20199;-41
2024/02/07 06:45:50;;;;;;;5.67;3.73;;;8.40;99.90;;;;;;5093493;28;20569;-42
2024/02/07 06:48:17;;;;;;;7.53;4.40;;;8.50;99.90;;;;;;5075294;28;20222;-41
2024/02/07 06:50:42;;;;;;;5.27;3.80;;;8.50;99.90;;;;;;5094052;28;20271;-43
2024/02/07 06:53:08;;;;;;;5.73;3.87;;;8.50;99.90;;;;;;5091892;28;20525;-43
2024/02/07 06:55:33;;;;;;;4.80;3.63;;;8.50;99.90;;;;;;5073830;28;20185;-42
2024/02/07 06:57:59;;;;;;;6.27;3.50;;;8.50;99.90;;;;;;5095681;28;20180;-42
2024/02/07 07:00:25;;;;;;;6.13;4.00;;;8.50;99.90;;;;;;5093058;28;20344;-42
2024/02/07 07:02:51;;;;;;;5.07;3.87;;;8.50;99.90;;;;;;5093423;28;20562;-43
2024/02/07 07:05:17;;;;;;;9.23;4.03;;;8.50;99.90;;;;;;5092162;28;20224;-42
2024/02/07 07:07:43;;;;;;;7.80;3.30;;;8.60;99.90;;;;;;5075072;28;20491;-43
2024/02/07 07:10:08;;;;;;;9.80;4.50;;;8.50;99.90;;;;;;5090125;28;20559;-44
2024/02/07 07:12:34;;;;;;;4.90;3.23;;;8.60;99.90;;;;;;5093333;28;20185;-44
2024/02/07 07:15:00;;;;;;;7.60;3.07;;;8.60;99.90;;;;;;5075779;28;20433;-41
2024/02/07 07:17:26;;;;;;;6.33;4.00;;;8.70;95.80;;;;;;5091631;28;20185;-41
2024/02/07 07:19:52;;;;;;;6.50;3.90;;;8.70;81.40;;;;;;5092824;28;20680;-43
2024/02/07 07:22:17;;;;;;;5.07;3.80;;;8.70;43.00;;;;;;5073016;28;20211;-43
2024/02/07 07:24:44;;;;;;;5.07;3.67;;;8.70;52.70;;;;;;5092678;28;20414;-41
2024/02/07 07:27:10;;;;;;;8.00;3.77;;;8.70;33.30;;;;;;5092320;28;20188;-45
2024/02/07 07:29:36;;;;;;;4.93;3.00;;;8.70;1.00;;;;;;5093599;28;20720;-43
2024/02/07 07:32:03;;;;;;;5.13;2.92;;;8.70;1.00;;;;;;5028175;28;1344286;-42
2024/02/07 07:34:28;;;;;;;4.00;3.60;;;8.80;1.00;;;;;;5091841;28;20279;-44
2024/02/07 07:36:54;;;;;;;7.30;4.47;;;8.80;1.00;;;;;;5093930;28;20415;-42
2024/02/07 07:39:19;;;;;;;6.13;3.67;;;8.80;1.00;;;;;;5096441;28;20246;-44
2024/02/07 07:41:45;;;;;;;6.93;3.57;;;8.90;1.00;;;;;;5094838;28;20255;-42
2024/02/07 07:44:12;;;;;;;4.20;3.60;;;8.90;1.00;;;;;;5094786;28;20554;-42
2024/02/07 07:46:38;;;;;;;6.43;3.50;;;8.90;1.00;;;;;;5095224;28;20218;-42
2024/02/07 07:49:04;;;;;;;9.93;4.17;;;8.90;1.00;;;;;;5094606;28;20426;-43
2024/02/07 07:51:29;;;;;;;4.57;3.57;;;9.00;1.00;;;;;;5095858;28;20192;-43
2024/02/07 07:53:55;;;;;;;8.93;4.10;;;9.00;1.00;;;;;;5092937;28;20716;-44
2024/02/07 07:56:21;;;;;;;6.50;4.23;;;9.00;1.00;;;;;;5094069;28;20195;-42
2024/02/07 07:58:49;;;;;;;10.70;3.63;;;9.10;1.00;;;;;;5096077;28;20242;-42
2024/02/07 08:01:16;;;;;;;8.00;3.53;;;9.10;99.90;;;;;;5095309;28;20183;-42
2024/02/07 08:03:42;;;;;;;5.23;3.80;;;9.20;99.90;;;;;;5096172;28;20572;-42
2024/02/07 08:06:09;;;;;;;6.50;4.40;;;9.20;99.90;;;;;;5095079;28;20904;-43
2024/02/07 08:08:35;;;;;;;4.80;3.57;;;9.20;99.90;;;;;;5093619;28;20271;-45
2024/02/07 08:11:05;;;;;;;5.27;3.30;;;9.30;99.90;;;;;;5095208;28;20406;-43
2024/02/07 08:13:34;;;;;;;5.10;3.87;;;9.30;99.90;;;;;;5094405;28;20522;-42
2024/02/07 08:16:01;;;;;;;6.23;3.37;;;9.30;99.90;;;;;;5074763;28;20422;-42
2024/02/07 08:18:29;;;;;;;3.90;3.27;;;9.30;99.90;;;;;;5095883;28;20434;-44
2024/02/07 08:20:55;;;;;;;4.10;3.70;;;9.30;99.90;;;;;;5076948;28;20430;-43
2024/02/07 08:23:20;;;;;;;5.03;3.77;;;9.40;99.90;;;;;;5094917;28;20498;-41
2024/02/07 08:25:46;;;;;;;7.30;5.00;;;9.30;99.90;;;;;;5095061;28;20192;-42
2024/02/07 08:28:12;;;;;;;4.77;3.40;;;9.30;99.90;;;;;;5093929;28;20172;-44
2024/02/07 08:30:38;;;;;;;5.10;3.90;;;9.40;99.90;;;;;;5094909;28;20430;-43
2024/02/07 08:33:04;;;;;;;5.63;4.17;;;9.40;99.90;;;;;;5093507;28;20765;-42
2024/02/07 08:35:29;;;;;;;4.80;3.73;;;9.40;99.90;;;;;;5075986;28;20188;-44
2024/02/07 08:37:58;;;;;;;7.57;3.70;;;9.40;99.90;;;;;;5094733;28;20560;-41
2024/02/07 08:40:28;;;;;;;4.20;3.50;;;9.40;99.90;;;;;;5094394;28;20177;-45
2024/02/07 08:42:53;;;;;;;4.17;3.50;;;9.50;99.90;;;;;;5094704;28;20430;-44
2024/02/07 08:45:20;;;;;;;5.50;3.57;;;9.50;99.90;;;;;;5096433;28;20543;-43
2024/02/07 08:47:46;;;;;;;4.57;3.13;;;9.50;99.90;;;;;;5076454;28;20235;-45
2024/02/07 08:50:12;;;;;;;10.57;3.67;;;9.60;99.90;;;;;;5093569;28;20458;-42
2024/02/07 08:52:41;;;;;;;8.13;3.97;;;9.60;99.90;;;;;;5094915;28;20407;-42
2024/02/07 08:55:08;;;;;;;3.40;1.50;;;9.60;99.90;;;;;;5096031;28;20414;-43
2024/02/07 08:57:39;;;;;;;3.47;1.83;;;10.10;1.00;;;;;;5095524;28;20767;-45
2024/02/07 09:00:05;;;;;;;2.33;1.43;;;11.40;1.00;;;;;;5095495;28;20694;-49
2024/02/07 09:02:30;;;;;;;6.03;2.10;;;12.50;1.00;;;;;;5095337;28;20504;-46
2024/02/07 09:04:56;;;;;;;7.00;2.20;;;13.50;99.90;;;;;;5095536;28;20564;-46
2024/02/07 09:07:22;;;;;;;6.93;3.20;;;14.30;1.00;;;;;;5076893;28;20172;-46
2024/02/07 09:09:48;;;;;;;9.07;3.00;;;14.90;1.00;;;;;;5095164;28;20514;-44
2024/02/07 09:12:14;;;;;;;5.30;3.23;;;15.30;1.00;;;;;;5095751;28;20513;-44
2024/02/07 09:14:39;;;;;;;7.60;2.90;;;15.70;1.00;;;;;;5094525;28;20191;-44
2024/02/07 09:17:05;;;;;;;7.10;2.77;;;15.90;99.90;;;;;;5094035;28;20181;-45
2024/02/07 09:19:30;;;;;;;4.53;2.80;;;16.10;99.90;;;;;;5093585;28;20222;-44
2024/02/07 09:21:56;;;;;;;8.50;3.33;;;16.30;1.00;;;;;;5094307;28;20168;-46
2024/02/07 09:24:21;;;;;;;7.53;4.40;;;16.20;99.90;;;;;;5092879;28;20204;-45
2024/02/07 09:26:47;;;;;;;3.97;2.90;;;16.10;1.00;;;;;;5093206;28;20222;-45
2024/02/07 09:29:12;;;;;;;3.87;3.10;;;16.10;1.00;;;;;;5093389;28;20275;-45
2024/02/07 09:31:38;;;;;;;3.33;2.90;;;16.20;99.90;;;;;;5093639;28;20580;-44
2024/02/07 09:34:04;;;;;;;5.37;3.40;;;16.20;99.90;;;;;;5094238;28;20212;-44
2024/02/07 09:36:29;;;;;;;5.77;3.23;;;16.20;99.90;;;;;;5076280;28;20252;-45
2024/02/07 09:38:55;;;;;;;3.33;2.87;;;16.10;99.90;;;;;;5092255;28;20235;-42
2024/02/07 09:41:21;;;;;;;7.83;3.43;;;16.10;99.90;;;;;;5094418;28;20185;-45
2024/02/07 09:43:48;;;;;;;4.63;3.40;;;15.60;1.00;;;;;;5096979;28;20183;-46
2024/02/07 09:46:15;;;;;;;8.17;4.37;;;15.00;1.00;;;;;;5098686;28;20846;-50
2024/02/07 09:48:40;;;;;;;8.83;3.90;;;13.90;9.60;;;;;;5078822;28;20418;-45
2024/02/07 09:51:14;;;;;;;5.10;3.97;;;13.10;99.90;;;;;;5095850;28;20745;-41
2024/02/07 09:53:40;;;;;;;4.83;3.77;;;12.60;1.00;;;;;;5094993;28;20428;-39
2024/02/07 09:56:06;;;;;;;6.00;3.73;;;12.20;99.90;;;;;;5076859;28;20502;-43
2024/02/07 09:58:32;;;;;;;5.00;3.60;;;11.60;99.90;;;;;;5076180;28;20582;-40
2024/02/07 10:00:57;;;;;;;6.70;4.30;;;11.20;99.90;;;;;;5097052;28;20521;-41
2024/02/07 10:03:24;;;;;;;5.93;3.83;;;11.00;1.00;;;;;;5097761;28;20567;-41
2024/02/07 10:05:57;;;;;;;6.40;5.03;;;10.60;1.00;;;;;;5077223;28;20200;-39
2024/02/07 10:08:24;;;;;;;3.93;3.50;;;10.30;99.90;;;;;;5076817;28;20433;-43
2024/02/07 10:10:50;;;;;;;4.63;3.30;;;10.20;1.00;;;;;;5094179;28;20741;-42
2024/02/07 10:13:17;;;;;;;4.43;3.60;;;10.10;99.90;;;;;;5095818;28;20423;-40
2024/02/07 10:15:43;;;;;;;6.17;3.87;;;9.90;1.00;;;;;;5095544;28;20437;-43
2024/02/07 10:18:10;;;;;;;6.47;3.93;;;9.80;1.00;;;;;;5076830;28;20426;-42
2024/02/07 10:20:36;;;;;;;4.50;3.80;;;9.90;1.00;;;;;;5095116;28;20434;-43
2024/02/07 10:23:07;;;;;;;8.67;3.30;;;10.10;1.00;;;;;;5076543;28;20873;-40
2024/02/07 10:25:34;;;;;;;6.23;3.27;;;10.50;99.90;;;;;;5095639;28;20290;-42
2024/02/07 10:28:06;;;;;;;5.90;3.50;;;10.70;1.00;;;;;;5094758;28;20422;-42
2024/02/07 10:30:32;;;;;;;5.77;3.87;;;10.80;99.90;;;;;;5095233;28;20423;-42
2024/02/07 10:32:58;;;;;;;5.13;3.20;;;10.90;99.90;;;;;;5093909;28;20496;-42
2024/02/07 10:35:24;;;;;;;4.70;2.90;;;11.40;99.90;;;;;;5095612;28;20294;-41
2024/02/07 10:37:55;;;;;;;4.23;3.03;;;11.50;99.90;;;;;;5095267;28;20517;-42
2024/02/07 10:40:21;;;;;;;4.23;2.93;;;11.90;26.00;;;;;;5092031;28;20297;-40
2024/02/07 10:42:55;;;;;;;5.47;2.93;;;12.10;99.90;;;;;;5091784;28;20516;-43
2024/02/07 10:45:20;;;;;;;5.67;2.90;;;11.80;99.90;;;;;;5092990;28;20497;-41
2024/02/07 10:47:46;;;;;;;4.20;3.20;;;11.50;99.90;;;;;;5093789;28;20422;-42
2024/02/07 10:50:12;;;;;;;3.40;2.97;;;11.30;99.90;;;;;;5096276;28;20433;-41
2024/02/07 10:52:41;;;;;;;3.50;2.73;;;11.10;1.00;;;;;;5077240;28;20172;-43
2024/02/07 10:55:07;;;;;;;4.17;3.53;;;10.80;99.90;;;;;;5095247;28;20183;-41
2024/02/07 10:57:40;;;;;;;4.70;3.00;;;10.40;99.90;;;;;;5094132;28;20476;-42
2024/02/07 11:00:07;;;;;;;7.03;3.33;;;10.20;1.00;;;;;;5094675;28;20413;-41
2024/02/07 11:02:33;;;;;;;5.77;3.10;;;10.00;1.00;;;;;;5095481;28;20431;-45
2024/02/07 11:05:00;;;;;;;5.37;4.40;;;9.90;39.10;;;;;;5093216;28;20464;-41
2024/02/07 11:07:25;;;;;;;5.70;3.47;;;9.60;99.90;;;;;;5096796;28;20169;-43
2024/02/07 11:09:52;;;;;;;5.23;3.27;;;9.50;99.90;;;;;;5097146;28;20472;-43
2024/02/07 11:12:18;;;;;;;3.90;3.30;;;9.40;1.00;;;;;;5098255;28;20172;-42
2024/02/07 11:14:45;;;;;;;5.30;3.67;;;9.40;1.00;;;;;;5078927;28;20452;-41
2024/02/07 11:17:15;;;;;;;5.30;3.50;;;9.50;1.00;;;;;;5095571;28;20176;-42
2024/02/07 11:19:44;;;;;;;5.83;3.90;;;9.50;1.00;;;;;;5095559;28;20711;-41
2024/02/07 11:22:48;;;;;;;4.13;3.20;;;9.50;1.00;;;;;;5077019;28;20525;-43
2024/02/07 11:25:18;;;;;;;6.37;3.60;;;9.50;1.00;;;;;;5074813;28;20465;-42
2024/02/07 11:27:44;;;;;;;6.43;3.87;;;9.50;1.00;;;;;;5075744;28;20522;-43
2024/02/07 11:30:10;;;;;;;5.50;4.13;;;9.70;99.90;;;;;;5092650;28;20799;-41
2024/02/07 11:32:38;;;;;;;6.57;3.50;;;9.80;99.90;;;;;;5095162;28;20465;-44
2024/02/07 11:35:07;;;;;;;3.90;3.07;;;10.20;1.00;;;;;;5094967;28;20414;-40
2024/02/07 11:37:36;;;;;;;6.37;3.63;;;10.20;1.00;;;;;;5094096;28;20471;-42
2024/02/07 11:40:08;;;;;;;3.87;2.80;;;10.50;99.90;;;;;;5092735;28;20955;-42
2024/02/07 11:42:40;;;;;;;3.30;2.43;;;11.00;99.90;;;;;;5093745;28;20427;-43
2024/02/07 11:45:13;;;;;;;4.17;2.90;;;12.00;1.00;;;;;;5077008;28;20462;-44
2024/02/07 11:47:42;;;;;;;3.67;2.70;;;13.00;99.90;;;;;;5096425;28;20422;-41
2024/02/07 11:50:12;;;;;;;2.87;2.57;;;13.70;99.90;;;;;;5093372;28;20809;-42
2024/02/07 11:52:39;;;;;;;2.90;2.30;;;14.20;99.90;;;;;;5076666;28;20406;-43
2024/02/07 11:55:08;;;;;;;3.47;2.93;;;13.70;99.90;;;;;;5094103;28;20430;-43
2024/02/07 11:57:34;;;;;;;2.47;2.03;;;13.80;99.90;;;;;;5093730;28;20430;-42
2024/02/07 12:00:05;;;;;;;3.50;2.73;;;14.20;99.90;;;;;;5094038;28;20799;-43
2024/02/07 12:02:30;;;;;;;3.17;1.90;;;14.40;51.50;;;;;;5076572;28;20453;-43
2024/02/07 12:04:56;;;;;;;2.30;1.83;;;14.40;28.30;;;;;;5095401;28;20478;-44
2024/02/07 12:07:22;;;;;;;3.80;2.30;;;14.10;45.50;;;;;;5093926;28;20237;-45
2024/02/07 12:09:48;;;;;;;5.93;1.90;;;13.40;99.90;;;;;;5092366;28;20410;-44
2024/02/07 12:12:14;;;;;;;2.53;2.13;;;12.60;1.00;;;;;;5074263;28;20211;-45
2024/02/07 12:14:40;;;;;;;4.03;1.90;;;12.20;99.90;;;;;;5073555;28;20176;-45
2024/02/07 12:17:06;;;;;;;2.80;1.90;;;12.10;1.00;;;;;;5074941;28;20795;-43
2024/02/07 12:19:34;;;;;;;3.40;1.67;;;11.70;99.90;;;;;;5091382;28;20278;-43
2024/02/07 12:22:01;;;;;;;3.50;2.30;;;11.60;1.00;;;;;;5093479;28;20419;-44
2024/02/07 12:24:28;;;;;;;2.30;2.00;;;11.60;1.00;;;;;;5090058;28;20430;-43
2024/02/07 12:26:53;;;;;;;1.70;1.47;;;11.70;99.90;;;;;;5091697;28;20446;-45
2024/02/07 12:29:20;;;;;;;3.73;1.57;;;11.70;1.00;;;;;;5091616;28;20669;-43
2024/02/07 12:31:46;;;;;;;5.20;2.10;;;11.70;1.00;;;;;;5095026;28;20168;-43
2024/02/07 12:34:11;;;;;;;9.53;3.60;;;11.50;99.90;;;;;;5093010;28;20711;-47
2024/02/07 12:36:37;;;;;;;3.63;1.73;;;11.30;1.00;;;;;;5091692;28;20217;-44
2024/02/07 12:39:03;;;;;;;4.53;2.37;;;11.10;99.90;;;;;;5090533;28;20196;-47
2024/02/07 12:41:28;;;;;;;3.80;2.00;;;11.00;1.00;;;;;;5090514;28;20219;-43
2024/02/07 12:43:57;;;;;;;5.10;2.67;;;11.10;99.90;;;;;;5090039;28;20260;-44
2024/02/07 12:46:22;;;;;;;3.67;2.50;;;11.00;99.90;;;;;;5091795;28;20196;-43
2024/02/07 12:48:48;;;;;;;5.60;2.43;;;11.00;99.90;;;;;;5094355;28;20775;-46
2024/02/07 12:51:15;;;;;;;2.30;2.03;;;10.90;99.90;;;;;;5093470;28;20466;-44
2024/02/07 12:53:40;;;;;;;2.97;2.13;;;10.60;99.90;;;;;;5093701;28;20414;-44
2024/02/07 12:56:08;;;;;;;2.73;2.30;;;10.50;1.00;;;;;;5091380;28;20410;-43
2024/02/07 12:58:42;;;;;;;3.20;2.27;;;10.50;99.90;;;;;;5092690;28;20207;-45
2024/02/07 13:01:08;;;;;;;8.13;3.50;;;10.40;1.00;;;;;;5092644;28;20885;-45
2024/02/07 13:03:33;;;;;;;2.50;2.30;;;10.30;1.00;;;;;;5094068;28;20437;-43
2024/02/07 13:05:59;;;;;;;5.27;2.20;;;10.20;1.00;;;;;;5093418;28;20648;-45
2024/02/07 13:08:24;;;;;;;4.00;2.20;;;10.30;3.80;;;;;;5094372;28;20272;-44
2024/02/07 13:10:50;;;;;;;4.50;2.60;;;10.20;59.00;;;;;;5093335;28;20167;-44
2024/02/07 13:13:16;;;;;;;3.10;2.30;;;10.20;99.90;;;;;;5075281;28;20161;-43
2024/02/07 13:15:44;;;;;;;5.60;2.40;;;10.10;99.90;;;;;;5095968;28;20430;-43
2024/02/07 13:18:10;;;;;;;2.80;2.00;;;10.10;99.90;;;;;;5099260;28;20232;-45
2024/02/07 13:20:36;;;;;;;4.17;2.53;;;10.20;99.90;;;;;;5078923;28;20739;-46
2024/02/07 13:23:01;;;;;;;2.73;2.10;;;10.30;5.00;;;;;;5096955;28;20452;-44
2024/02/07 13:25:27;;;;;;;2.40;1.80;;;10.20;27.90;;;;;;5096994;28;20519;-43
2024/02/07 13:27:53;;;;;;;3.40;2.23;;;10.10;99.90;;;;;;5098627;28;20179;-43
2024/02/07 13:30:18;;;;;;;4.17;2.20;;;10.00;99.90;;;;;;5100211;28;20187;-43
2024/02/07 13:32:44;;;;;;;5.63;2.23;;;9.90;99.90;;;;;;5097570;28;20228;-45
2024/02/07 13:35:10;;;;;;;4.33;2.33;;;9.90;99.90;;;;;;5099648;28;20253;-44
2024/02/07 13:37:36;;;;;;;2.80;2.10;;;9.80;99.90;;;;;;5098798;28;20739;-45
2024/02/07 13:40:01;;;;;;;3.93;2.63;;;9.80;99.90;;;;;;5080119;28;20188;-47
2024/02/07 13:42:27;;;;;;;2.93;2.10;;;9.80;99.90;;;;;;5097895;28;20192;-46
2024/02/07 13:44:52;;;;;;;3.13;2.10;;;9.80;99.90;;;;;;5096688;28;20220;-47
2024/02/07 13:47:18;;;;;;;5.00;2.43;;;9.80;99.90;;;;;;5076500;28;20467;-46
2024/02/07 13:49:44;;;;;;;2.70;2.30;;;9.80;99.90;;;;;;5095847;28;20169;-45
2024/02/07 13:52:09;;;;;;;2.33;1.73;;;9.80;99.90;;;;;;5095528;28;20456;-44
2024/02/07 13:54:35;;;;;;;3.43;2.40;;;9.90;99.90;;;;;;5097685;28;20191;-47
2024/02/07 13:57:01;;;;;;;2.73;2.13;;;10.00;99.90;;;;;;5096927;28;20623;-45
2024/02/07 13:59:26;;;;;;;4.07;2.20;;;10.00;99.90;;;;;;5096354;28;20260;-45
2024/02/07 14:01:52;;;;;;;2.10;1.83;;;10.00;99.90;;;;;;5097426;28;20447;-45
2024/02/07 14:04:17;;;;;;;1.93;1.73;;;10.00;99.90;;;;;;5097234;28;20247;-46
2024/02/07 14:06:43;;;;;;;5.13;1.90;;;10.00;99.90;;;;;;5096717;28;20219;-45